Time;durP1;ratioP1;P1;durP2;ratioP2;P2;SDS_P1;SDS_P2;PMS_P1;PMS_P2;Temp;Humidity;BMP_temperature;BMP_pressure;BME280_temperature;BME280_humidity;BME280_pressure;Samples;Min_cycle;Max_cycle;Signal;HPM_P1;HPM_P2
2022/07/12 00:01:28;;;;;;;;;3.50;3.50;;;;;26.92;30.33;101697.97;5021685;28;45283;-60
2022/07/12 00:03:53;;;;;;;;;4.50;4.00;;;;;26.90;30.10;101716.91;5021245;28;47621;-60
2022/07/12 00:06:18;;;;;;;;;5.00;5.00;;;;;26.86;30.73;101707.31;5021719;28;45268;-60
2022/07/12 00:08:44;;;;;;;;;3.00;3.00;;;;;26.84;30.23;101716.47;5021378;28;45496;-60
2022/07/12 00:11:09;;;;;;;;;5.00;3.50;;;;;26.82;30.37;101718.41;5021417;28;45246;-60
2022/07/12 00:13:34;;;;;;;;;2.00;2.00;;;;;26.79;30.85;101707.84;5021609;28;45161;-60
2022/07/12 00:16:00;;;;;;;;;3.50;3.50;;;;;26.75;30.61;101707.19;5021593;28;45209;-60
2022/07/12 00:18:25;;;;;;;;;5.75;4.25;;;;;26.71;31.19;101701.09;5020979;28;46909;-60
2022/07/12 00:20:50;;;;;;;;;6.75;6.00;;;;;26.69;31.16;101700.34;5021297;28;45398;-60
2022/07/12 00:23:16;;;;;;;;;5.00;4.00;;;;;26.67;31.06;101701.44;5021371;28;45177;-60
2022/07/12 00:25:42;;;;;;;;;3.50;3.00;;;;;26.64;30.63;101690.84;5021322;28;45174;-60
2022/07/12 00:28:07;;;;;;;;;4.00;4.00;;;;;26.60;31.13;101703.66;5021064;28;46022;-60
2022/07/12 00:30:33;;;;;;;;;4.75;3.25;;;;;26.56;30.86;101694.06;5021339;28;45189;-60
2022/07/12 00:32:58;;;;;;;;;4.25;4.25;;;;;26.53;31.33;101696.97;5021457;28;45478;-60
2022/07/12 00:35:23;;;;;;;;;4.00;4.00;;;;;26.47;31.79;101692.00;5021296;28;45589;-60
2022/07/12 00:37:49;;;;;;;;;4.00;4.00;;;;;26.44;30.94;101696.59;5021074;28;46092;-60
2022/07/12 00:40:14;;;;;;;;;3.25;3.25;;;;;26.40;31.34;101692.41;5021182;28;45264;-60
2022/07/12 00:42:40;;;;;;;;;3.25;3.25;;;;;26.39;31.24;101689.78;5036244;28;45435;-60
2022/07/12 00:45:07;;;;;;;;;3.75;3.75;;;;;26.34;31.80;101695.50;5021027;28;45288;-60
2022/07/12 00:47:40;;;;;;;;;4.50;4.50;;;;;26.34;31.35;101700.88;5020730;28;46568;-60
2022/07/12 00:50:16;;;;;;;;;4.00;4.00;;;;;26.31;31.78;101693.00;5020919;28;45331;-60
2022/07/12 00:52:47;;;;;;;;;3.25;3.25;;;;;26.25;31.84;101686.19;5020885;28;45344;-60
2022/07/12 00:55:13;;;;;;;;;3.75;2.75;;;;;26.26;31.54;101689.75;5020959;28;45442;-60
2022/07/12 00:57:39;;;;;;;;;4.75;4.75;;;;;26.22;31.62;101680.13;5020411;28;45425;-60
2022/07/12 01:00:09;;;;;;;;;3.00;3.00;;;;;26.20;31.92;101680.25;5020993;28;45327;-60
2022/07/12 01:02:35;;;;;;;;;5.50;3.50;;;;;26.17;32.29;101676.88;5019828;28;45248;-60
2022/07/12 01:05:02;;;;;;;;;5.00;4.25;;;;;26.16;32.39;101680.53;5020480;28;45337;-60
2022/07/12 01:07:28;;;;;;;;;4.25;4.25;;;;;26.10;32.44;101673.72;5020500;28;45348;-60
2022/07/12 01:09:54;;;;;;;;;4.25;4.25;;;;;26.11;32.28;101680.84;5020580;28;45382;-60
2022/07/12 01:12:21;;;;;;;;;5.00;4.25;;;;;26.08;32.40;101675.66;5020563;28;45381;-60
2022/07/12 01:14:47;;;;;;;;;5.00;4.75;;;;;26.07;32.09;101679.31;5020487;28;45269;-62
2022/07/12 01:17:13;;;;;;;;;4.75;4.00;;;;;26.03;32.57;101678.59;5020272;28;46111;-60
2022/07/12 01:19:39;;;;;;;;;3.50;3.50;;;;;26.01;32.42;101687.75;5019794;28;45732;-60
2022/07/12 01:22:10;;;;;;;;;4.00;4.00;;;;;25.98;32.15;101688.81;5020440;28;45200;-60
2022/07/12 01:24:36;;;;;;;;;4.75;4.00;;;;;25.96;32.94;101688.03;5020309;28;45328;-60
2022/07/12 01:27:06;;;;;;;;;2.00;2.00;;;;;25.92;32.15;101692.78;5019942;28;46525;-60
2022/07/12 01:29:32;;;;;;;;;3.50;3.50;;;;;25.89;32.72;101692.13;5020344;28;45421;-60
2022/07/12 01:32:24;;;;;;;;;3.75;3.00;;;;;25.87;32.83;101689.50;5020244;28;45450;-60
2022/07/12 01:34:47;;;;;;;;;4.00;4.00;;;;;25.81;32.57;101684.53;5020142;28;45495;-60
2022/07/12 01:37:14;;;;;;;;;3.50;3.50;;;;;25.78;33.06;101684.72;5020299;28;45438;-60
2022/07/12 01:39:40;;;;;;;;;4.50;3.50;;;;;25.78;33.23;101690.09;5020107;28;45401;-60
2022/07/12 01:42:05;;;;;;;;;4.00;4.00;;;;;25.75;32.51;101687.63;5019955;28;45201;-60
2022/07/12 01:44:31;;;;;;;;;3.50;3.50;;;;;25.73;33.10;101684.16;5020173;28;45235;-60
2022/07/12 01:46:58;;;;;;;;;4.25;4.25;;;;;25.69;33.16;101680.78;5019972;28;46200;-60
2022/07/12 01:49:23;;;;;;;;;5.75;5.75;;;;;25.66;32.92;101678.31;5020119;28;45555;-60
2022/07/12 01:51:49;;;;;;;;;3.25;3.25;;;;;25.63;32.96;101676.66;5020192;28;45337;-60
2022/07/12 01:54:14;;;;;;;;;6.50;4.00;;;;;25.61;33.01;101675.03;5019997;28;45308;-60
2022/07/12 01:56:39;;;;;;;;;4.50;4.50;;;;;25.59;33.01;101680.50;5019761;28;45996;-60
2022/07/12 01:59:05;;;;;;;;;4.50;4.50;;;;;25.56;33.39;101680.69;5018744;28;45350;-60
2022/07/12 02:01:31;;;;;;;;;4.00;4.00;;;;;25.53;33.57;101674.66;5019948;28;45399;-60
2022/07/12 02:04:02;;;;;;;;;4.25;4.25;;;;;25.48;33.78;101674.94;5019759;28;45302;-60
2022/07/12 02:06:28;;;;;;;;;5.00;5.00;;;;;25.47;33.59;101681.25;5019897;28;46208;-60
2022/07/12 02:08:54;;;;;;;;;6.00;6.00;;;;;25.44;33.60;101676.94;5019625;28;45254;-60
2022/07/12 02:11:20;;;;;;;;;4.25;3.75;;;;;25.42;33.39;101684.25;5019692;28;45431;-60
2022/07/12 02:13:45;;;;;;;;;4.00;4.00;;;;;25.39;33.80;101684.44;5019580;28;45368;-60
2022/07/12 02:16:10;;;;;;;;;6.00;5.00;;;;;25.37;33.77;101680.09;5022954;28;51479;-60
2022/07/12 02:18:36;;;;;;;;;2.25;2.25;;;;;25.34;33.91;101682.97;5022283;28;45312;-60
2022/07/12 02:21:01;;;;;;;;;4.00;4.00;;;;;25.31;33.87;101682.19;5023273;28;45724;-60
2022/07/12 02:23:27;;;;;;;;;3.00;3.00;;;;;25.27;34.03;101680.66;5023150;28;45328;-60
2022/07/12 02:25:52;;;;;;;;;3.75;3.50;;;;;25.27;33.79;101683.34;5023322;28;46214;-60
2022/07/12 02:28:17;;;;;;;;;5.00;5.00;;;;;25.26;34.00;101688.81;5022869;28;45465;-60
2022/07/12 02:30:43;;;;;;;;;3.50;3.50;;;;;25.24;34.17;101677.28;5023348;28;45234;-61
2022/07/12 02:33:08;;;;;;;;;6.25;6.25;;;;;25.22;34.16;101682.78;5023169;28;45298;-60
2022/07/12 02:35:33;;;;;;;;;7.00;5.25;;;;;25.20;34.15;101686.50;5023152;28;45365;-60
2022/07/12 02:37:58;;;;;;;;;5.50;4.00;;;;;25.18;34.38;101685.72;5023020;28;45295;-60
2022/07/12 02:43:07;;;;;;;;;5.00;4.75;;;;;25.13;34.39;101684.19;5022601;28;45319;-60
2022/07/12 02:45:33;;;;;;;;;4.50;4.00;;;;;25.10;34.46;101679.00;5022757;28;45323;-60
2022/07/12 02:47:58;;;;;;;;;3.50;3.25;;;;;25.07;34.49;101679.19;5022721;28;45532;-59
2022/07/12 02:50:23;;;;;;;;;6.75;5.00;;;;;25.06;34.31;101676.59;5022912;28;45307;-59
2022/07/12 02:52:49;;;;;;;;;5.75;5.75;;;;;25.05;34.54;101682.94;5022830;28;45374;-60
2022/07/12 02:55:14;;;;;;;;;5.50;5.50;;;;;25.02;34.62;101681.31;5022762;28;45252;-60
2022/07/12 02:57:40;;;;;;;;;3.50;3.50;;;;;24.99;34.43;101685.03;5022492;28;45222;-60
2022/07/12 03:00:07;;;;;;;;;4.75;4.75;;;;;24.95;34.33;101688.00;5022843;28;45243;-60
2022/07/12 03:02:32;;;;;;;;;6.00;5.50;;;;;24.92;34.96;101689.03;5022324;28;45260;-60
2022/07/12 03:04:57;;;;;;;;;6.25;6.25;;;;;24.88;34.80;101692.00;5022243;28;45474;-60
2022/07/12 03:07:23;;;;;;;;;7.00;5.75;;;;;24.86;34.86;101684.03;5020912;28;54172;-60
2022/07/12 03:09:48;;;;;;;;;8.25;6.75;;;;;24.82;34.86;101694.09;5022806;28;45429;-60
2022/07/12 03:12:13;;;;;;;;;5.25;4.50;;;;;24.81;35.00;101697.75;5037529;28;45999;-60
2022/07/12 03:14:39;;;;;;;;;7.75;7.75;;;;;24.79;34.94;101704.16;5021990;28;45342;-60
2022/07/12 03:17:04;;;;;;;;;7.00;6.75;;;;;24.77;34.98;101698.03;5022377;28;45505;-60
2022/07/12 03:19:29;;;;;;;;;5.75;4.50;;;;;24.72;35.21;101698.31;5020565;28;45351;-60
2022/07/12 03:21:55;;;;;;;;;6.00;6.00;;;;;24.71;35.32;101698.41;5022249;28;45454;-60
2022/07/12 03:24:20;;;;;;;;;6.75;6.75;;;;;24.67;35.26;101703.94;5037286;28;46435;-60
2022/07/12 03:26:45;;;;;;;;;7.00;6.75;;;;;24.64;35.20;101704.13;5021349;28;45359;-60
2022/07/12 03:29:11;;;;;;;;;5.00;4.75;;;;;24.62;35.24;101708.69;5037693;28;45257;-60
2022/07/12 03:31:36;;;;;;;;;7.50;6.50;;;;;24.60;35.28;101699.88;5022015;28;45332;-60
2022/07/12 03:34:02;;;;;;;;;6.50;6.50;;;;;24.58;35.12;101707.13;5022128;28;46264;-60
2022/07/12 03:36:27;;;;;;;;;6.75;6.75;;;;;24.54;35.50;101702.91;5022220;28;45330;-60
2022/07/12 03:38:52;;;;;;;;;7.25;6.00;;;;;24.54;35.72;101697.53;5022370;28;45263;-60
2022/07/12 03:41:18;;;;;;;;;5.50;5.50;;;;;24.49;35.30;101696.94;5021596;28;45465;-60
2022/07/12 03:43:43;;;;;;;;;8.75;7.00;;;;;24.49;35.67;101705.00;5021983;28;45402;-60
2022/07/12 03:46:08;;;;;;;;;7.00;7.00;;;;;24.47;35.83;101710.44;5021814;28;45186;-60
2022/07/12 03:48:34;;;;;;;;;7.75;7.00;;;;;24.44;35.64;101702.56;5021751;28;48392;-60
2022/07/12 03:50:59;;;;;;;;;5.00;5.00;;;;;24.41;35.88;101701.88;5021913;28;45308;-60
2022/07/12 03:53:24;;;;;;;;;5.75;5.75;;;;;24.36;36.02;101707.50;5021883;28;45330;-60
2022/07/12 03:55:50;;;;;;;;;6.50;6.50;;;;;24.33;35.99;101716.59;5021794;28;45236;-60
2022/07/12 03:58:15;;;;;;;;;6.50;5.00;;;;;24.29;36.05;101714.19;5021761;28;45227;-60
2022/07/12 04:00:42;;;;;;;;;7.50;7.50;;;;;24.26;36.38;101719.72;5021531;28;45228;-60
2022/07/12 04:03:08;;;;;;;;;8.50;7.50;;;;;24.22;36.16;101723.56;5021536;28;46205;-61
2022/07/12 04:05:34;;;;;;;;;6.25;6.25;;;;;24.18;36.01;101722.84;5021432;28;45364;-60
2022/07/12 04:08:01;;;;;;;;;6.00;6.00;;;;;24.15;36.25;101725.69;5036815;28;45336;-60
2022/07/12 04:10:27;;;;;;;;;8.00;7.00;;;;;24.11;36.48;101719.66;5021498;28;45446;-60
2022/07/12 04:12:52;;;;;;;;;6.75;6.75;;;;;24.09;36.23;101715.31;5021433;28;46148;-60
2022/07/12 04:15:18;;;;;;;;;5.25;5.25;;;;;24.09;36.39;101726.06;5036748;28;45299;-60
2022/07/12 04:17:43;;;;;;;;;5.75;5.00;;;;;24.07;36.32;101731.50;5020384;28;45314;-62
2022/07/12 04:20:10;;;;;;;;;6.25;6.25;;;;;23.99;36.67;101729.25;5020713;28;45457;-63
2022/07/12 04:22:35;;;;;;;;;5.50;5.50;;;;;23.99;36.64;101734.63;5021531;28;45480;-62
2022/07/12 04:25:00;;;;;;;;;8.75;7.00;;;;;23.95;36.82;101733.06;5021059;28;45220;-62
2022/07/12 04:27:27;;;;;;;;;4.75;4.25;;;;;23.91;36.80;101742.25;5021336;28;45196;-62
2022/07/12 04:29:52;;;;;;;;;5.50;5.50;;;;;23.88;37.14;101742.34;5021162;28;45513;-64
2022/07/12 04:32:18;;;;;;;;;2.25;2.25;;;;;23.85;36.80;101740.72;5021042;28;45340;-63
2022/07/12 04:34:43;;;;;;;;;8.00;7.00;;;;;23.84;36.97;101738.97;5021199;28;45154;-63
2022/07/12 04:37:09;;;;;;;;;7.00;7.00;;;;;23.81;36.97;101740.94;5020899;28;45676;-62
2022/07/12 04:39:34;;;;;;;;;8.00;6.25;;;;;23.80;37.12;101739.25;5020514;28;45470;-62
2022/07/12 04:41:59;;;;;;;;;6.50;6.00;;;;;23.79;37.19;101746.41;5020837;28;45327;-63
2022/07/12 04:44:25;;;;;;;;;5.50;5.50;;;;;23.76;37.50;101741.22;5020899;28;45519;-61
2022/07/12 04:46:50;;;;;;;;;8.75;7.25;;;;;23.72;37.39;101745.00;5019909;28;45310;-62
2022/07/12 04:49:15;;;;;;;;;5.00;5.00;;;;;23.70;37.29;101737.03;5020877;28;45517;-62
2022/07/12 04:51:41;;;;;;;;;10.00;8.50;;;;;23.70;37.32;101739.72;5020900;28;46074;-62
2022/07/12 04:54:07;;;;;;;;;9.75;9.75;;;;;23.70;37.43;101746.91;5036161;28;45335;-62
2022/07/12 04:56:32;;;;;;;;;6.00;6.00;;;;;23.68;38.06;101741.63;5020832;28;45371;-62
2022/07/12 04:59:07;;;;;;;;;7.00;6.25;;;;;23.68;37.59;101743.44;5073773;28;45287;-61
2022/07/12 05:01:32;;;;;;;;;9.00;7.00;;;;;23.67;37.66;101749.75;5056664;28;45355;-60
2022/07/12 05:03:58;;;;;;;;;6.00;6.00;;;;;23.66;37.79;101753.38;5056872;28;45358;-60
2022/07/12 05:06:24;;;;;;;;;7.25;5.00;;;;;23.66;37.64;101759.63;5056961;28;45215;-60
2022/07/12 05:08:49;;;;;;;;;5.00;5.00;;;;;23.62;37.90;101758.06;5056270;28;46225;-60
2022/07/12 05:11:15;;;;;;;;;8.25;7.25;;;;;23.64;37.81;101760.66;5056522;28;45384;-60
2022/07/12 05:13:40;;;;;;;;;7.75;7.00;;;;;23.64;38.09;101764.19;5056817;28;45229;-60
2022/07/12 05:16:07;;;;;;;;;6.75;6.75;;;;;23.62;37.79;101768.78;5056681;28;45356;-60
2022/07/12 05:18:33;;;;;;;;;39.25;33.75;;;;;23.59;37.83;101768.94;5054222;28;46613;-60
2022/07/12 05:20:58;;;;;;;;;6.75;6.50;;;;;23.63;37.87;101775.00;5044921;28;45261;-60
2022/07/12 05:23:24;;;;;;;;;7.50;6.25;;;;;23.63;37.90;101777.69;5055297;28;45380;-60
2022/07/12 05:25:50;;;;;;;;;7.25;5.50;;;;;23.64;37.75;101774.06;5056418;28;45581;-60
2022/07/12 05:28:15;;;;;;;;;6.00;6.00;;;;;23.67;38.04;101782.81;5055937;28;47384;-60
2022/07/12 05:30:43;;;;;;;;;6.25;6.25;;;;;23.69;37.90;101786.28;5056256;28;45303;-60
2022/07/12 05:33:08;;;;;;;;;8.25;7.00;;;;;23.70;37.56;101788.00;5056429;28;45299;-60
2022/07/12 05:35:33;;;;;;;;;6.75;5.50;;;;;23.72;38.08;101784.38;5054938;28;45486;-60
2022/07/12 05:37:59;;;;;;;;;9.00;7.25;;;;;23.75;37.90;101785.09;5054702;28;46351;-61
2022/07/12 05:40:24;;;;;;;;;8.00;8.00;;;;;23.78;38.16;101794.78;5056207;28;45347;-61
2022/07/12 05:42:51;;;;;;;;;8.50;8.50;;;;;23.79;38.19;101788.50;5055962;28;45392;-61
2022/07/12 05:45:16;;;;;;;;;7.00;7.00;;;;;23.81;37.86;101786.56;5056362;28;46431;-61
2022/07/12 05:47:42;;;;;;;;;7.00;5.75;;;;;23.85;37.90;101790.84;5055613;28;45824;-61
2022/07/12 05:50:08;;;;;;;;;10.00;7.50;;;;;23.86;38.08;101793.44;5054890;28;45332;-61
2022/07/12 05:55:17;;;;;;;;;8.75;8.00;;;;;23.91;38.30;101803.97;5055960;28;46428;-61
2022/07/12 05:57:43;;;;;;;;;7.00;7.00;;;;;23.88;38.13;101790.66;5054066;28;45847;-61
2022/07/12 06:00:09;;;;;;;;;9.00;8.00;;;;;23.94;38.11;101795.75;5054719;28;45319;-62
2022/07/12 06:02:34;;;;;;;;;7.75;6.75;;;;;23.98;38.45;101797.28;5055645;28;45275;-62
2022/07/12 06:04:59;;;;;;;;;6.75;6.00;;;;;24.01;37.95;101804.31;5055788;28;45450;-62
2022/07/12 06:07:25;;;;;;;;;7.25;7.25;;;;;24.04;38.12;101805.97;5054472;28;46691;-61
2022/07/12 06:09:50;;;;;;;;;8.00;8.00;;;;;24.06;38.08;101814.81;5038997;28;48119;-62
2022/07/12 06:12:15;;;;;;;;;8.75;7.00;;;;;24.08;38.01;101818.28;5037668;28;45299;-62
2022/07/12 06:14:41;;;;;;;;;4.25;4.25;;;;;24.09;38.13;101815.50;5032192;28;45430;-63
2022/07/12 06:17:08;;;;;;;;;8.00;8.00;;;;;24.09;38.13;101820.88;5032320;28;48497;-63
2022/07/12 06:19:34;;;;;;;;;8.75;8.75;;;;;24.11;38.15;101824.38;5030903;28;45233;-63
2022/07/12 06:22:00;;;;;;;;;8.25;6.75;;;;;24.14;38.08;101821.50;5033609;28;45150;-62
2022/07/12 06:24:25;;;;;;;;;7.00;7.00;;;;;24.16;38.55;101826.78;5037560;28;45253;-63
2022/07/12 06:26:51;;;;;;;;;7.00;7.00;;;;;24.17;38.33;101815.09;5027934;28;46250;-61
2022/07/12 06:29:16;;;;;;;;;15.25;14.25;;;;;24.18;38.35;101817.69;5034845;28;51481;-61
2022/07/12 06:31:41;;;;;;;;;9.50;9.50;;;;;24.21;38.22;101824.69;5033633;28;45374;-63
2022/07/12 06:34:07;;;;;;;;;8.25;6.75;;;;;24.24;38.26;101824.56;5028406;28;45479;-61
2022/07/12 06:36:32;;;;;;;;;7.50;7.50;;;;;24.26;38.33;101817.25;5038610;28;46975;-58
2022/07/12 06:38:57;;;;;;;;;8.50;8.00;;;;;24.27;38.00;101818.16;5031396;28;45252;-57
2022/07/12 06:41:24;;;;;;;;;9.00;9.00;;;;;24.31;38.17;101825.97;5028337;28;45344;-60
2022/07/12 06:43:49;;;;;;;;;5.50;4.00;;;;;24.34;38.05;101824.91;5040520;28;45569;-59
2022/07/12 06:46:15;;;;;;;;;6.00;6.00;;;;;24.36;38.23;101817.63;5025483;28;48260;-58
2022/07/12 06:48:40;;;;;;;;;9.25;9.00;;;;;24.39;37.89;101825.53;5029007;28;45281;-59
2022/07/12 06:51:05;;;;;;;;;7.25;7.25;;;;;24.41;38.40;101828.97;5024930;28;45274;-59
2022/07/12 06:53:30;;;;;;;;;8.50;6.75;;;;;24.45;38.20;101824.31;5039229;28;45855;-59
2022/07/12 06:55:57;;;;;;;;;8.00;8.00;;;;;24.47;38.19;101830.47;5024131;28;45399;-58
2022/07/12 06:58:22;;;;;;;;;5.75;5.75;;;;;24.49;38.05;101824.06;5042923;28;45525;-58
2022/07/12 07:00:47;;;;;;;;;8.50;8.50;;;;;24.53;38.40;101827.44;5054557;28;45826;-58
2022/07/12 07:03:13;;;;;;;;;9.25;8.00;;;;;24.55;38.53;101822.81;5051487;28;45433;-58
2022/07/12 07:05:38;;;;;;;;;8.25;7.25;;;;;24.59;38.19;101832.47;5043999;28;46222;-59
2022/07/12 07:08:04;;;;;;;;;8.75;8.00;;;;;24.60;38.25;101830.63;5033315;28;45347;-58
2022/07/12 07:10:29;;;;;;;;;8.00;8.00;;;;;24.64;38.43;101833.09;5058891;28;45261;-59
2022/07/12 07:12:54;;;;;;;;;8.00;7.25;;;;;24.67;38.22;101832.91;5061114;28;45492;-58
2022/07/12 07:15:20;;;;;;;;;7.25;7.25;;;;;24.68;38.18;101828.44;5050848;28;47292;-59
2022/07/12 07:17:45;;;;;;;;;9.25;7.25;;;;;24.72;38.17;101831.81;5061509;28;45159;-61
2022/07/12 07:20:11;;;;;;;;;7.25;7.25;;;;;24.74;38.33;101832.56;5047770;28;45345;-60
2022/07/12 07:22:37;;;;;;;;;7.25;7.25;;;;;24.77;38.54;101829.72;5052729;28;45323;-60
2022/07/12 07:25:03;;;;;;;;;10.00;8.25;;;;;24.80;38.11;101826.84;5058480;28;46353;-60
2022/07/12 07:27:29;;;;;;;;;6.50;6.50;;;;;24.83;38.21;101832.06;5042482;28;45504;-60
2022/07/12 07:32:38;;;;;;;;;10.00;10.00;;;;;24.88;38.29;101835.34;5047026;28;45413;-59
2022/07/12 07:35:05;;;;;;;;;9.50;8.75;;;;;24.92;37.93;101842.28;5057034;28;45399;-60
2022/07/12 07:37:31;;;;;;;;;6.00;6.00;;;;;24.97;38.21;101848.25;5057416;28;45423;-56
2022/07/12 07:39:56;;;;;;;;;9.00;8.50;;;;;24.99;38.19;101846.34;5059121;28;45361;-57
2022/07/12 07:42:22;;;;;;;;;9.00;7.50;;;;;25.03;38.15;101844.34;5055909;28;45729;-57
2022/07/12 07:44:47;;;;;;;;;6.75;6.75;;;;;25.06;38.21;101846.84;5048653;28;45320;-57
2022/07/12 07:47:12;;;;;;;;;6.00;6.00;;;;;25.10;37.89;101847.53;5056120;28;45451;-58
2022/07/12 07:49:37;;;;;;;;;8.25;8.00;;;;;25.13;38.10;101845.53;5041246;28;45469;-57
2022/07/12 07:52:03;;;;;;;;;9.00;9.00;;;;;25.16;38.22;101849.88;5022906;28;45472;-54
2022/07/12 07:54:29;;;;;;;;;8.25;7.50;;;;;25.20;37.91;101840.66;5040777;28;45203;-57
2022/07/12 07:56:54;;;;;;;;;8.75;8.75;;;;;25.22;38.03;101841.44;5053579;28;45328;-56
2022/07/12 07:59:19;;;;;;;;;8.50;8.00;;;;;25.26;38.09;101845.69;5040847;28;45520;-57
2022/07/12 08:01:45;;;;;;;;;6.25;6.00;;;;;25.29;38.46;101852.69;5040514;28;45412;-57
2022/07/12 08:04:20;;;;;;;;;7.75;7.75;;;;;25.34;38.29;101849.75;5040531;28;47239;-57
2022/07/12 08:06:47;;;;;;;;;9.50;7.25;;;;;25.35;37.98;101848.78;5040376;28;45246;-57
2022/07/12 08:09:12;;;;;;;;;12.25;8.00;;;;;25.39;37.69;101855.75;5040978;28;45280;-57
2022/07/12 08:11:38;;;;;;;;;7.25;7.25;;;;;25.43;38.13;101857.28;5042766;28;45242;-57
2022/07/12 08:14:05;;;;;;;;;12.25;10.00;;;;;25.47;37.92;101853.44;5061068;28;45969;-57
2022/07/12 08:16:31;;;;;;;;;9.00;8.00;;;;;25.50;38.00;101847.91;5043494;28;45319;-57
2022/07/12 08:18:56;;;;;;;;;7.50;6.50;;;;;25.53;38.35;101853.09;5051128;28;45237;-57
2022/07/12 08:21:22;;;;;;;;;9.75;9.75;;;;;25.57;37.71;101843.88;5050340;28;45324;-57
2022/07/12 08:23:48;;;;;;;;;8.00;8.00;;;;;25.63;38.15;101848.00;5040291;28;45328;-57
2022/07/12 08:26:14;;;;;;;;;6.75;6.50;;;;;25.68;37.61;101847.75;5039948;28;45239;-57
2022/07/12 08:28:39;;;;;;;;;7.75;6.50;;;;;25.68;37.92;101850.44;5040259;28;45831;-57
2022/07/12 08:31:04;;;;;;;;;8.50;8.50;;;;;25.75;37.61;101852.66;5039956;28;45143;-57
2022/07/12 08:33:30;;;;;;;;;7.50;6.25;;;;;25.78;38.18;101848.91;5039732;28;45162;-57
2022/07/12 08:35:55;;;;;;;;;9.25;8.25;;;;;25.82;37.62;101849.59;5022200;28;45736;-56
2022/07/12 08:38:20;;;;;;;;;10.00;9.50;;;;;25.87;37.56;101842.09;5022506;28;45771;-57
2022/07/12 08:40:46;;;;;;;;;9.00;7.25;;;;;25.92;37.47;101846.25;5039735;28;45378;-57
2022/07/12 08:43:11;;;;;;;;;8.25;8.25;;;;;25.99;37.71;101852.09;5040038;28;46846;-57
2022/07/12 08:45:36;;;;;;;;;8.25;7.50;;;;;26.05;38.01;101850.84;5039845;28;45286;-57
2022/07/12 08:48:02;;;;;;;;;8.00;8.00;;;;;26.09;37.84;101845.22;5040001;28;45365;-57
2022/07/12 08:50:27;;;;;;;;;8.75;8.75;;;;;26.17;37.36;101851.94;5039845;28;45227;-57
2022/07/12 08:52:54;;;;;;;;;8.25;8.00;;;;;26.21;37.10;101848.97;5039876;28;46080;-57
2022/07/12 08:55:31;;;;;;;;;5.75;5.75;;;;;26.28;37.87;101852.13;5039808;28;45367;-57
2022/07/12 08:57:59;;;;;;;;;8.00;8.00;;;;;26.33;37.71;101851.84;5039594;28;45502;-57
2022/07/12 09:00:27;;;;;;;;;7.50;7.50;;;;;26.39;37.04;101840.66;5039487;28;45211;-57
2022/07/12 09:02:57;;;;;;;;;9.75;6.00;;;;;26.47;36.90;101848.28;5039417;28;46985;-57
2022/07/12 09:05:25;;;;;;;;;8.25;7.50;;;;;26.51;36.93;101845.25;5039536;28;45394;-57
2022/07/12 09:07:51;;;;;;;;;7.50;7.50;;;;;26.54;37.28;101855.88;5039668;28;45207;-57
2022/07/12 09:10:17;;;;;;;;;11.50;6.50;;;;;26.62;36.90;101860.75;5046238;28;45404;-57
2022/07/12 09:12:43;;;;;;;;;8.00;7.50;;;;;26.68;37.40;101849.56;5059273;28;46181;-57
2022/07/12 09:15:23;;;;;;;;;6.50;6.00;;;;;26.74;37.52;101854.59;5059842;28;45340;-57
2022/07/12 09:18:12;;;;;;;;;7.50;7.50;;;;;26.80;37.09;101849.75;5059539;28;45248;-57
2022/07/12 09:20:38;;;;;;;;;7.00;6.00;;;;;26.87;36.84;101856.50;5059577;28;45374;-57
2022/07/12 09:23:06;;;;;;;;;7.25;7.25;;;;;26.90;36.76;101858.97;5040492;28;45379;-57
2022/07/12 09:25:32;;;;;;;;;6.50;6.50;;;;;26.99;36.82;101852.97;5039273;28;45301;-57
2022/07/12 09:27:59;;;;;;;;;6.75;6.75;;;;;27.06;37.17;101854.28;5039046;28;45309;-57
2022/07/12 09:30:27;;;;;;;;;7.00;7.00;;;;;27.13;36.47;101846.66;5039507;28;45237;-57
2022/07/12 09:36:15;;;;;;;;;9.25;7.75;;;;;27.24;36.38;101852.22;5039398;28;45301;-57
2022/07/12 09:38:50;;;;;;;;;5.25;5.25;;;;;27.32;36.31;101856.19;5045145;28;45202;-57
2022/07/12 09:41:17;;;;;;;;;4.00;4.00;;;;;27.38;36.67;101855.78;5039089;28;45258;-57
2022/07/12 09:43:44;;;;;;;;;5.75;5.75;;;;;27.45;35.69;101857.13;5039154;28;46041;-57
2022/07/12 09:46:10;;;;;;;;;6.75;5.00;;;;;27.51;36.34;101858.53;5042595;28;45376;-57
2022/07/12 09:48:36;;;;;;;;;7.75;6.00;;;;;27.60;36.12;101848.94;5042583;28;45386;-57
2022/07/12 09:51:04;;;;;;;;;8.00;7.25;;;;;27.66;36.07;101851.22;5042709;28;45467;-57
2022/07/12 09:53:35;;;;;;;;;7.75;6.75;;;;;27.75;35.96;101861.38;5042356;28;46255;-57
2022/07/12 09:56:05;;;;;;;;;7.75;7.25;;;;;27.84;36.10;101863.44;5042297;28;45372;-57
2022/07/12 09:58:37;;;;;;;;;5.00;5.00;;;;;27.93;35.54;101861.06;5042351;28;45191;-57
2022/07/12 10:01:06;;;;;;;;;6.00;6.00;;;;;28.02;35.77;101855.00;5042813;28;45314;-57
2022/07/12 10:03:32;;;;;;;;;5.00;5.00;;;;;28.10;35.79;101854.47;5044322;28;46441;-57
2022/07/12 10:06:01;;;;;;;;;6.00;6.00;;;;;28.15;35.31;101855.91;5042480;28;45265;-57
2022/07/12 10:08:26;;;;;;;;;6.25;6.00;;;;;28.27;35.11;101853.28;5042206;28;45355;-57
2022/07/12 10:10:52;;;;;;;;;6.00;6.00;;;;;28.34;35.27;101860.84;5053459;28;45281;-56
2022/07/12 10:13:19;;;;;;;;;4.25;4.25;;;;;28.44;35.33;101855.63;5044238;28;46770;-57
2022/07/12 10:15:47;;;;;;;;;4.50;4.50;;;;;28.53;35.26;101868.47;5062183;28;45195;-57
2022/07/12 10:18:30;;;;;;;;;5.50;4.50;;;;;28.64;35.09;101856.00;5062381;28;45249;-57
2022/07/12 10:20:56;;;;;;;;;6.50;5.00;;;;;28.73;34.30;101854.47;5043180;28;45411;-57
2022/07/12 10:23:35;;;;;;;;;8.75;6.25;;;;;28.83;34.56;101861.81;5042065;28;45243;-57
2022/07/12 10:26:21;;;;;;;;;6.75;5.25;;;;;28.93;34.57;101859.28;5041806;28;45360;-57
2022/07/12 10:29:07;;;;;;;;;4.75;4.75;;;;;29.05;34.21;101859.34;5027869;28;45313;-57
2022/07/12 10:31:38;;;;;;;;;5.25;5.00;;;;;29.16;34.20;101868.34;5049882;28;45344;-58
2022/07/12 10:34:19;;;;;;;;;7.00;7.00;;;;;29.28;33.99;101860.28;5061344;28;45402;-57
2022/07/12 10:36:54;;;;;;;;;4.50;4.50;;;;;29.42;34.22;101856.53;5044000;28;45843;-57
2022/07/12 10:39:20;;;;;;;;;4.50;4.25;;;;;29.54;33.90;101857.47;5043926;28;45275;-57
2022/07/12 10:42:05;;;;;;;;;5.00;5.00;;;;;29.72;33.59;101864.13;5027154;28;45504;-57
2022/07/12 10:44:39;;;;;;;;;5.75;5.00;;;;;29.90;33.90;101861.88;5061758;28;45373;-57
2022/07/12 10:47:07;;;;;;;;;5.25;5.25;;;;;30.08;33.53;101861.38;5060357;28;45531;-57
2022/07/12 10:49:33;;;;;;;;;3.75;3.75;;;;;30.31;33.54;101854.09;5061180;28;45320;-58
2022/07/12 10:52:11;;;;;;;;;1.00;1.00;;;;;30.68;33.75;101852.97;5061598;28;45415;-57
2022/07/12 10:54:41;;;;;;;;;4.00;4.00;;;;;31.11;34.03;101844.84;5061511;28;45435;-57
2022/07/12 10:57:07;;;;;;;;;5.50;5.50;;;;;31.68;34.14;101849.13;5060954;28;45472;-57
2022/07/12 10:59:36;;;;;;;;;4.25;4.25;;;;;32.28;34.13;101848.41;5061886;28;45269;-57
2022/07/12 11:02:02;;;;;;;;;6.00;4.75;;;;;32.95;34.65;101840.56;5061561;28;45514;-57
2022/07/12 11:04:28;;;;;;;;;7.00;5.75;;;;;33.63;34.51;101853.28;5061660;28;46399;-57
2022/07/12 11:06:58;;;;;;;;;4.50;4.50;;;;;34.34;34.28;101852.78;5061527;28;45376;-58
2022/07/12 11:09:25;;;;;;;;;4.00;4.00;;;;;35.06;34.01;101851.19;5061664;28;45318;-58
2022/07/12 11:11:51;;;;;;;;;4.75;4.75;;;;;35.73;33.62;101843.31;5036387;28;45413;-58
2022/07/12 11:14:21;;;;;;;;;3.00;3.00;;;;;36.44;33.79;101845.91;5041167;28;46125;-58
2022/07/12 11:16:48;;;;;;;;;5.00;4.75;;;;;37.18;32.90;101854.25;5040933;28;45159;-58
2022/07/12 11:19:17;;;;;;;;;4.00;3.75;;;;;37.92;33.39;101844.28;5041200;28;45478;-58
2022/07/12 11:21:44;;;;;;;;;3.25;3.25;;;;;38.63;32.82;101836.91;5046383;28;45456;-58
2022/07/12 11:24:20;;;;;;;;;4.50;4.00;;;;;39.46;32.41;101848.13;5022458;28;45297;-58
2022/07/12 11:26:47;;;;;;;;;3.75;3.50;;;;;40.18;31.95;101847.69;5040913;28;45354;-58
2022/07/12 11:29:12;;;;;;;;;2.75;2.75;;;;;40.83;31.42;101854.16;5023061;28;45259;-58
2022/07/12 11:31:37;;;;;;;;;2.75;2.00;;;;;41.39;31.01;101852.56;5040865;28;45346;-58
2022/07/12 11:34:03;;;;;;;;;3.25;2.50;;;;;41.90;30.23;101854.19;5040895;28;45299;-58